createdAt,value
2018-07-23T00:00:16.636Z,19.00
2018-07-23T00:02:43.873Z,18.99
2018-07-23T00:05:10.978Z,18.97
2018-07-23T00:07:38.132Z,18.91
2018-07-23T00:10:05.322Z,18.91
2018-07-23T00:12:32.500Z,18.90
2018-07-23T00:14:59.657Z,18.88
2018-07-23T00:17:26.775Z,18.88
2018-07-23T00:19:53.920Z,18.92
2018-07-23T00:22:21.229Z,18.93
2018-07-23T00:24:48.351Z,18.91
2018-07-23T00:27:15.477Z,18.84
2018-07-23T00:29:42.647Z,18.81
2018-07-23T00:32:09.761Z,18.78
2018-07-23T00:34:36.884Z,18.74
2018-07-23T00:37:04.100Z,18.73
2018-07-23T00:39:31.239Z,18.68
2018-07-23T00:41:58.393Z,18.65
2018-07-23T00:44:25.604Z,18.59
2018-07-23T00:46:52.767Z,18.53
2018-07-23T00:49:19.912Z,18.51
2018-07-23T00:51:47.179Z,18.46
2018-07-23T00:54:14.293Z,18.41
2018-07-23T00:56:41.448Z,18.36
2018-07-23T00:59:08.634Z,18.30
2018-07-23T01:01:35.751Z,18.25
2018-07-23T01:04:02.969Z,18.19
2018-07-23T01:06:30.116Z,18.14
2018-07-23T01:08:57.236Z,18.09
2018-07-23T01:11:24.348Z,18.05
2018-07-23T01:13:51.563Z,18.00
2018-07-23T01:16:18.703Z,17.98
2018-07-23T01:18:45.823Z,17.92
2018-07-23T01:21:13.057Z,17.90
2018-07-23T01:23:40.249Z,17.87
2018-07-23T01:26:07.364Z,17.83
2018-07-23T01:28:34.519Z,17.79
2018-07-23T01:31:01.649Z,17.79
2018-07-23T01:33:28.763Z,17.75
2018-07-23T01:35:55.909Z,17.73
2018-07-23T01:38:23.027Z,17.71
2018-07-23T01:40:50.140Z,17.70
2018-07-23T01:43:17.372Z,17.68
2018-07-23T01:45:44.513Z,17.63
2018-07-23T01:48:11.648Z,17.61
2018-07-23T01:50:38.809Z,17.57
2018-07-23T01:53:05.940Z,17.54
2018-07-23T01:55:33.120Z,17.53
2018-07-23T01:58:00.366Z,17.51
2018-07-23T02:00:27.493Z,17.57
2018-07-23T02:02:54.591Z,17.54
2018-07-23T02:05:21.833Z,17.57
2018-07-23T02:07:48.952Z,17.53
2018-07-23T02:10:16.120Z,17.51
2018-07-23T02:12:43.321Z,17.58
2018-07-23T02:15:10.451Z,17.61
2018-07-23T02:17:37.572Z,17.58
2018-07-23T02:20:05.005Z,17.53
2018-07-23T02:22:32.141Z,17.62
2018-07-23T02:25:00.249Z,17.53
2018-07-23T02:27:27.419Z,17.55
2018-07-23T02:29:54.540Z,17.57
2018-07-23T02:32:21.638Z,17.49
2018-07-23T02:34:48.760Z,17.42
2018-07-23T02:37:15.961Z,17.37
2018-07-23T02:39:43.211Z,17.44
2018-07-23T02:42:10.380Z,17.44
2018-07-23T02:44:37.718Z,17.46
2018-07-23T02:47:05.273Z,17.51
2018-07-23T02:49:32.451Z,17.49
2018-07-23T02:51:59.576Z,17.47
2018-07-23T02:54:26.713Z,17.42
2018-07-23T02:56:53.980Z,17.34
2018-07-23T02:59:21.083Z,17.25
2018-07-23T03:01:48.196Z,17.19
2018-07-23T03:04:15.440Z,17.36
2018-07-23T03:06:42.590Z,17.20
2018-07-23T03:09:09.707Z,17.16
2018-07-23T03:11:36.864Z,17.23
2018-07-23T03:14:04.014Z,17.29
2018-07-23T03:16:31.200Z,17.35
2018-07-23T03:18:58.347Z,17.33
2018-07-23T03:21:25.465Z,17.38
2018-07-23T03:23:52.564Z,17.30
2018-07-23T03:26:19.710Z,17.44
2018-07-23T03:28:46.852Z,17.43
2018-07-23T03:31:13.970Z,17.50
2018-07-23T03:33:41.232Z,17.51
2018-07-23T03:36:08.345Z,17.48
2018-07-23T03:38:35.532Z,17.54
2018-07-23T03:41:02.792Z,17.50
2018-07-23T03:43:29.940Z,17.54
2018-07-23T03:45:57.084Z,17.65
2018-07-23T03:48:24.240Z,17.63
2018-07-23T03:50:51.366Z,17.61
2018-07-23T03:53:18.541Z,17.66
2018-07-23T03:55:45.769Z,17.61
2018-07-23T03:58:12.924Z,17.81
2018-07-23T04:00:40.058Z,17.66
2018-07-23T04:03:11.840Z,17.67
2018-07-23T04:05:38.984Z,17.70
2018-07-23T04:08:06.180Z,17.76
2018-07-23T04:10:33.344Z,17.76
2018-07-23T04:13:00.459Z,17.84
2018-07-23T04:15:27.579Z,17.74
2018-07-23T04:18:01.283Z,17.75
2018-07-23T04:20:28.641Z,17.72
2018-07-23T04:22:55.735Z,17.79
2018-07-23T04:25:22.958Z,17.81
2018-07-23T04:27:50.111Z,17.85
2018-07-23T04:30:17.288Z,17.84
2018-07-23T04:32:44.528Z,17.91
2018-07-23T04:35:11.670Z,17.93
2018-07-23T04:37:38.814Z,17.99
2018-07-23T04:40:06.179Z,17.97
2018-07-23T04:42:33.316Z,17.99
2018-07-23T04:45:00.442Z,18.10
2018-07-23T04:47:27.621Z,18.05
2018-07-23T04:49:54.745Z,18.19
2018-07-23T04:52:21.920Z,18.16
2018-07-23T04:54:49.072Z,18.29
2018-07-23T04:57:16.213Z,18.27
2018-07-23T04:59:43.352Z,18.28
2018-07-23T05:02:10.508Z,18.30
2018-07-23T05:04:37.636Z,18.33
2018-07-23T05:07:04.808Z,18.45
2018-07-23T05:09:32.096Z,18.51
2018-07-23T05:11:59.236Z,18.61
2018-07-23T05:14:26.378Z,18.58
2018-07-23T05:16:53.636Z,18.69
2018-07-23T05:19:20.775Z,18.74
2018-07-23T05:21:47.895Z,18.78
2018-07-23T05:24:15.055Z,18.92
2018-07-23T05:26:42.195Z,19.06
2018-07-23T05:29:09.318Z,19.03
2018-07-23T05:31:36.532Z,19.19
2018-07-23T05:34:03.689Z,19.18
2018-07-23T05:36:30.856Z,19.36
2018-07-23T05:38:58.004Z,19.35
2018-07-23T05:41:25.171Z,19.43
2018-07-23T05:43:52.301Z,19.53
2018-07-23T05:46:20.891Z,19.63
2018-07-23T05:48:48.044Z,19.72
2018-07-23T05:51:15.256Z,19.78
2018-07-23T05:53:42.460Z,19.85
2018-07-23T05:56:09.583Z,19.93
2018-07-23T05:58:36.745Z,20.11
2018-07-23T06:01:03.975Z,20.11
2018-07-23T06:03:31.160Z,20.14
2018-07-23T06:05:58.278Z,20.24
2018-07-23T06:08:25.517Z,20.29
2018-07-23T06:10:52.715Z,20.44
2018-07-23T06:13:19.854Z,20.52
2018-07-23T06:15:47.464Z,20.55
2018-07-23T06:18:14.660Z,20.59
2018-07-23T06:20:41.794Z,20.67
2018-07-23T06:23:08.997Z,20.71
2018-07-23T06:25:36.247Z,20.86
2018-07-23T06:28:03.419Z,20.86
2018-07-23T06:30:30.681Z,20.93
2018-07-23T06:32:57.907Z,21.14
2018-07-23T06:35:25.028Z,21.28
2018-07-23T06:37:52.212Z,21.31
2018-07-23T06:40:19.443Z,21.42
2018-07-23T06:42:46.581Z,21.50
2018-07-23T06:45:14.123Z,21.61
2018-07-23T06:47:41.260Z,21.72
2018-07-23T06:50:08.403Z,21.75
2018-07-23T06:52:35.687Z,21.79
2018-07-23T06:55:02.883Z,21.80
2018-07-23T06:57:30.098Z,21.97
2018-07-23T06:59:57.227Z,22.04
2018-07-23T07:02:24.384Z,22.18
2018-07-23T07:04:51.518Z,22.02
2018-07-23T07:07:18.680Z,22.17
2018-07-23T07:09:45.891Z,22.31
2018-07-23T07:12:13.056Z,22.30
2018-07-23T07:14:40.231Z,22.29
2018-07-23T07:17:07.375Z,22.34
2018-07-23T07:19:34.514Z,22.47
2018-07-23T07:22:01.779Z,22.48
2018-07-23T07:24:28.976Z,22.67
2018-07-23T07:26:56.150Z,22.66
2018-07-23T07:29:23.472Z,22.83
2018-07-23T07:31:50.593Z,22.91
2018-07-23T07:34:17.699Z,22.80
2018-07-23T07:36:44.869Z,22.86
2018-07-23T07:39:12.782Z,22.80
2018-07-23T07:41:40.367Z,23.03
2018-07-23T07:44:08.199Z,23.07
2018-07-23T07:46:35.525Z,23.24
2018-07-23T07:49:02.756Z,23.08
2018-07-23T07:51:30.044Z,23.07
2018-07-23T07:53:57.177Z,23.10
2018-07-23T07:56:24.340Z,23.34
2018-07-23T07:58:51.655Z,23.54
2018-07-23T08:01:18.864Z,23.54
2018-07-23T08:03:45.983Z,23.63
2018-07-23T08:06:13.144Z,23.73
2018-07-23T08:08:40.292Z,23.78
2018-07-23T08:11:07.453Z,23.80
2018-07-23T08:13:35.071Z,23.79
2018-07-23T08:16:02.195Z,23.92
2018-07-23T08:18:29.363Z,23.94
2018-07-23T08:20:56.549Z,23.91
2018-07-23T08:23:23.664Z,24.00
2018-07-23T08:25:50.781Z,24.02
2018-07-23T08:28:18.043Z,24.24
2018-07-23T08:30:45.161Z,24.01
2018-07-23T08:33:12.297Z,24.15
2018-07-23T08:35:39.471Z,24.23
2018-07-23T08:38:06.615Z,24.32
2018-07-23T08:40:33.764Z,24.32
2018-07-23T08:43:00.973Z,24.55
2018-07-23T08:45:28.085Z,24.34
2018-07-23T08:47:55.214Z,24.55
2018-07-23T08:50:22.368Z,24.45
2018-07-23T08:52:49.503Z,24.55
2018-07-23T08:55:16.641Z,24.79
2018-07-23T08:57:43.816Z,24.58
2018-07-23T09:00:10.967Z,24.67
2018-07-23T09:02:38.110Z,24.95
2018-07-23T09:05:05.318Z,25.15
2018-07-23T09:07:32.534Z,25.14
2018-07-23T09:09:59.648Z,25.13
2018-07-23T09:12:26.847Z,25.15
2018-07-23T09:14:54.032Z,25.36
2018-07-23T09:17:21.215Z,25.69
2018-07-23T09:19:48.381Z,25.91
2018-07-23T09:22:15.525Z,25.51
2018-07-23T09:24:42.694Z,25.54
2018-07-23T09:27:09.964Z,25.87
2018-07-23T09:29:37.118Z,25.95
2018-07-23T09:32:04.301Z,25.78
2018-07-23T09:34:31.471Z,25.91
2018-07-23T09:36:58.619Z,26.08
2018-07-23T09:39:25.741Z,26.19
2018-07-23T09:41:52.904Z,26.36
2018-07-23T09:44:20.084Z,26.73
2018-07-23T09:46:47.200Z,26.63
2018-07-23T09:49:14.376Z,26.79
2018-07-23T09:51:41.514Z,26.80
2018-07-23T09:54:08.682Z,26.72
2018-07-23T09:56:35.896Z,26.85
2018-07-23T09:59:03.058Z,26.62
2018-07-23T10:01:30.194Z,26.62
2018-07-23T10:03:57.465Z,26.73
2018-07-23T10:06:24.600Z,26.96
2018-07-23T10:08:51.909Z,27.05
2018-07-23T10:11:19.268Z,27.15
2018-07-23T10:13:46.388Z,27.26
2018-07-23T10:16:13.558Z,27.37
2018-07-23T10:18:40.723Z,27.34
2018-07-23T10:21:07.906Z,27.52
2018-07-23T10:23:35.071Z,27.70
2018-07-23T10:26:02.248Z,27.85
2018-07-23T10:28:29.439Z,27.82
2018-07-23T10:30:56.579Z,27.94
2018-07-23T10:33:23.836Z,27.92
2018-07-23T10:35:50.959Z,28.07
2018-07-23T10:38:18.111Z,28.27
2018-07-23T10:40:45.489Z,28.44
2018-07-23T10:43:12.602Z,28.47
2018-07-23T10:45:39.774Z,28.54
2018-07-23T10:48:07.113Z,28.42
2018-07-23T10:50:34.246Z,28.74
2018-07-23T10:53:01.373Z,28.93
2018-07-23T10:55:28.568Z,29.01
2018-07-23T10:57:55.710Z,29.03
2018-07-23T11:00:22.853Z,29.21
2018-07-23T11:02:50.041Z,29.48
2018-07-23T11:05:17.165Z,29.75
2018-07-23T11:07:44.304Z,29.89
2018-07-23T11:10:11.518Z,30.04
2018-07-23T11:12:38.710Z,30.32
2018-07-23T11:15:06.637Z,30.14
2018-07-23T11:17:34.072Z,29.73
2018-07-23T11:20:01.228Z,30.30
2018-07-23T11:22:28.378Z,30.64
2018-07-23T11:24:55.647Z,30.40
2018-07-23T11:27:22.709Z,30.59
2018-07-23T11:29:49.874Z,30.41
2018-07-23T11:32:17.153Z,30.44
2018-07-23T11:34:44.279Z,31.26
2018-07-23T11:37:11.415Z,31.24
2018-07-23T11:39:38.600Z,31.88
2018-07-23T11:42:05.777Z,32.13
2018-07-23T11:44:32.917Z,31.78
2018-07-23T11:47:00.140Z,32.19
2018-07-23T11:49:27.276Z,32.48
2018-07-23T11:51:54.429Z,32.79
2018-07-23T11:54:21.605Z,33.31
2018-07-23T11:56:48.794Z,33.18
2018-07-23T11:59:16.053Z,33.32
2018-07-23T12:01:43.287Z,33.11
2018-07-23T12:04:10.732Z,32.90
2018-07-23T12:06:37.552Z,33.18
2018-07-23T12:09:07.266Z,33.21
2018-07-23T12:11:34.452Z,32.41
2018-07-23T12:14:01.602Z,31.84
2018-07-23T12:16:28.852Z,31.17
2018-07-23T12:18:56.056Z,30.59
2018-07-23T12:21:23.178Z,30.46
2018-07-23T12:23:50.455Z,30.41
2018-07-23T12:26:17.600Z,30.10
2018-07-23T12:28:44.738Z,29.89
2018-07-23T12:31:11.906Z,29.26
2018-07-23T12:33:39.082Z,29.24
2018-07-23T12:36:07.495Z,28.86
2018-07-23T12:38:34.714Z,28.68
2018-07-23T12:41:01.886Z,28.72
2018-07-23T12:43:29.009Z,28.67
2018-07-23T12:45:56.275Z,28.42
2018-07-23T12:48:23.439Z,28.40
2018-07-23T12:50:50.583Z,28.69
2018-07-23T12:53:17.856Z,28.55
2018-07-23T12:55:44.976Z,28.51
2018-07-23T12:58:12.112Z,28.72
2018-07-23T13:00:39.336Z,28.79
2018-07-23T13:03:06.460Z,28.92
2018-07-23T13:05:33.645Z,28.81
2018-07-23T13:08:02.495Z,29.01
2018-07-23T13:10:29.620Z,29.15
2018-07-23T13:12:56.777Z,29.27
2018-07-23T13:15:23.964Z,29.13
2018-07-23T13:17:51.072Z,28.95
2018-07-23T13:20:18.314Z,28.83
2018-07-23T13:22:45.665Z,28.90
2018-07-23T13:25:12.830Z,28.91
2018-07-23T13:27:39.924Z,28.84
2018-07-23T13:30:07.187Z,28.61
2018-07-23T13:32:34.337Z,28.55
2018-07-23T13:35:01.491Z,28.79
2018-07-23T13:37:28.748Z,28.98
2018-07-23T13:39:55.863Z,29.21
2018-07-23T13:42:22.997Z,28.97
2018-07-23T13:44:50.171Z,28.85
2018-07-23T13:47:17.319Z,28.94
2018-07-23T13:49:44.435Z,29.08
2018-07-23T13:52:11.692Z,29.26
2018-07-23T13:54:38.844Z,29.26
2018-07-23T13:57:06.024Z,29.44
2018-07-23T13:59:33.186Z,29.38
2018-07-23T14:02:00.360Z,29.59
2018-07-23T14:04:27.499Z,29.58
2018-07-23T14:06:54.664Z,29.58
2018-07-23T14:09:21.780Z,29.77
2018-07-23T14:11:48.916Z,29.55
2018-07-23T14:14:16.080Z,29.57
2018-07-23T14:16:43.200Z,29.55
2018-07-23T14:19:10.380Z,29.80
2018-07-23T14:21:37.643Z,29.88
2018-07-23T14:24:04.908Z,30.35
2018-07-23T14:26:32.064Z,30.00
2018-07-23T14:28:59.280Z,29.93
2018-07-23T14:31:26.407Z,29.90
2018-07-23T14:33:53.519Z,29.93
2018-07-23T14:36:20.826Z,30.18
2018-07-23T14:38:47.977Z,30.12
2018-07-23T14:41:15.141Z,29.93
2018-07-23T14:43:42.458Z,29.95
2018-07-23T14:46:09.598Z,30.00
2018-07-23T14:48:36.889Z,30.34
2018-07-23T14:51:04.150Z,30.54
2018-07-23T14:53:31.275Z,30.79
2018-07-23T14:55:58.379Z,30.69
2018-07-23T14:58:25.552Z,30.69
2018-07-23T15:00:52.705Z,30.43
2018-07-23T15:03:19.831Z,30.59
2018-07-23T15:05:46.976Z,31.07
2018-07-23T15:08:14.388Z,31.03
2018-07-23T15:10:41.531Z,30.78
2018-07-23T15:13:08.737Z,31.42
2018-07-23T15:15:35.895Z,32.77
2018-07-23T15:18:03.065Z,33.99
2018-07-23T15:20:30.247Z,34.76
2018-07-23T15:22:57.488Z,36.13
2018-07-23T15:25:24.644Z,37.54
2018-07-23T15:27:51.826Z,38.16
2018-07-23T15:30:18.952Z,39.44
2018-07-23T15:32:46.099Z,39.52
2018-07-23T15:35:13.301Z,40.35
2018-07-23T15:37:40.416Z,40.42
2018-07-23T15:40:07.604Z,40.51
2018-07-23T15:42:34.777Z,40.42
2018-07-23T15:45:02.062Z,40.98
2018-07-23T15:47:29.108Z,40.97
2018-07-23T15:49:56.266Z,40.62
2018-07-23T15:52:23.395Z,40.03
2018-07-23T15:54:50.531Z,40.94
2018-07-23T15:57:17.795Z,39.98
2018-07-23T15:59:44.939Z,40.22
2018-07-23T16:02:12.091Z,39.66
2018-07-23T16:04:39.270Z,38.91
2018-07-23T16:07:06.401Z,38.91
2018-07-23T16:09:33.631Z,39.63
2018-07-23T16:12:00.826Z,37.32
2018-07-23T16:14:27.951Z,35.62
2018-07-23T16:16:55.067Z,35.50
2018-07-23T16:19:22.220Z,34.70
2018-07-23T16:21:49.367Z,34.43
2018-07-23T16:24:16.581Z,34.21
2018-07-23T16:26:43.777Z,34.37
2018-07-23T16:29:10.887Z,35.71
2018-07-23T16:31:38.051Z,35.19
2018-07-23T16:34:05.224Z,34.71
2018-07-23T16:36:32.364Z,33.77
2018-07-23T16:38:59.498Z,34.09
2018-07-23T16:41:26.680Z,34.59
2018-07-23T16:43:53.827Z,35.42
2018-07-23T16:46:20.965Z,35.07
2018-07-23T16:48:48.143Z,34.53
2018-07-23T16:51:15.264Z,33.71
2018-07-23T16:53:42.445Z,33.52
2018-07-23T16:56:09.645Z,32.76
2018-07-23T16:58:36.772Z,32.34
2018-07-23T17:01:03.941Z,31.34
2018-07-23T17:03:31.097Z,30.74
2018-07-23T17:05:58.283Z,29.95
2018-07-23T17:08:25.391Z,29.21
2018-07-23T17:10:52.570Z,28.62
2018-07-23T17:13:19.700Z,28.35
2018-07-23T17:15:46.867Z,28.05
2018-07-23T17:18:14.095Z,27.93
2018-07-23T17:20:41.207Z,27.67
2018-07-23T17:23:08.331Z,27.48
2018-07-23T17:25:36.091Z,27.25
2018-07-23T17:28:03.250Z,26.96
2018-07-23T17:30:30.376Z,26.89
2018-07-23T17:32:57.519Z,26.83
2018-07-23T17:35:24.666Z,26.89
2018-07-23T17:37:51.807Z,26.79
2018-07-23T17:40:18.992Z,26.73
2018-07-23T17:42:46.106Z,26.57
2018-07-23T17:45:13.264Z,26.50
2018-07-23T17:47:40.403Z,26.34
2018-07-23T17:50:07.620Z,26.27
2018-07-23T17:52:34.760Z,26.20
2018-07-23T17:55:01.975Z,26.20
2018-07-23T17:57:29.105Z,26.09
2018-07-23T17:59:56.249Z,26.05
2018-07-23T18:02:23.471Z,26.00
2018-07-23T18:04:50.590Z,25.94
2018-07-23T18:07:17.801Z,25.79
2018-07-23T18:09:44.949Z,25.83
2018-07-23T18:12:12.106Z,25.73
2018-07-23T18:14:39.219Z,25.64
2018-07-23T18:17:06.567Z,25.56
2018-07-23T18:19:33.773Z,25.55
2018-07-23T18:22:00.889Z,25.36
2018-07-23T18:24:28.600Z,25.26
2018-07-23T18:26:55.785Z,25.20
2018-07-23T18:29:22.923Z,25.16
2018-07-23T18:31:50.090Z,25.06
2018-07-23T18:34:17.220Z,25.09
2018-07-23T18:36:44.361Z,24.93
2018-07-23T18:39:12.361Z,24.77
2018-07-23T18:41:39.984Z,24.72
2018-07-23T18:44:07.313Z,24.58
2018-07-23T18:46:34.484Z,24.52
2018-07-23T18:49:23.294Z,24.52
2018-07-23T18:51:51.624Z,24.36
2018-07-23T18:54:20.475Z,24.32
2018-07-23T18:56:49.780Z,24.14
2018-07-23T18:59:17.030Z,24.09
2018-07-23T19:01:44.236Z,23.89
2018-07-23T19:04:11.348Z,23.73
2018-07-23T19:06:38.567Z,23.59
2018-07-23T19:09:09.191Z,23.40
2018-07-23T19:11:36.380Z,23.15
2018-07-23T19:14:03.764Z,22.96
2018-07-23T19:16:30.903Z,22.85
2018-07-23T19:18:59.043Z,22.67
2018-07-23T19:21:26.219Z,22.50
2018-07-23T19:23:53.321Z,22.39
2018-07-23T19:26:20.467Z,22.24
2018-07-23T19:28:47.651Z,22.15
2018-07-23T19:31:14.787Z,22.00
2018-07-23T19:33:41.934Z,21.87
2018-07-23T19:36:09.147Z,21.74
2018-07-23T19:38:36.276Z,21.61
2018-07-23T19:41:03.477Z,21.47
2018-07-23T19:43:30.839Z,21.39
2018-07-23T19:45:58.068Z,21.29
2018-07-23T19:48:25.232Z,21.17
2018-07-23T19:50:52.460Z,21.07
2018-07-23T19:53:19.621Z,20.96
2018-07-23T19:55:46.831Z,20.90
2018-07-23T19:58:14.102Z,20.86
2018-07-23T20:00:41.231Z,20.78
2018-07-23T20:03:08.390Z,20.67
2018-07-23T20:05:36.572Z,20.58
2018-07-23T20:08:03.781Z,20.53
2018-07-23T20:10:30.882Z,20.45
2018-07-23T20:12:58.265Z,20.37
2018-07-23T20:15:25.321Z,20.36
2018-07-23T20:17:52.439Z,20.27
2018-07-23T20:20:19.647Z,20.18
2018-07-23T20:22:46.744Z,20.17
2018-07-23T20:25:13.865Z,20.10
2018-07-23T20:27:41.087Z,20.03
2018-07-23T20:30:08.329Z,20.00
2018-07-23T20:32:35.460Z,19.94
2018-07-23T20:35:02.801Z,19.90
2018-07-23T20:37:29.943Z,19.82
2018-07-23T20:39:57.080Z,19.75
2018-07-23T20:42:24.237Z,19.69
2018-07-23T20:44:51.356Z,19.63
2018-07-23T20:47:18.492Z,19.56
2018-07-23T20:49:45.720Z,19.53
2018-07-23T20:52:12.864Z,19.46
2018-07-23T20:54:40.004Z,19.40
2018-07-23T20:57:07.227Z,19.37
2018-07-23T20:59:34.343Z,19.33
2018-07-23T21:02:01.514Z,19.31
2018-07-23T21:04:28.742Z,19.23
2018-07-23T21:06:55.861Z,19.24
2018-07-23T21:09:22.984Z,19.18
2018-07-23T21:11:50.208Z,19.16
2018-07-23T21:14:17.355Z,19.06
2018-07-23T21:16:45.199Z,19.03
2018-07-23T21:19:12.363Z,19.00
2018-07-23T21:24:12.453Z,18.92
2018-07-23T21:26:39.596Z,18.87
2018-07-23T21:29:06.745Z,18.81
2018-07-23T21:31:34.053Z,18.77
2018-07-23T21:34:01.177Z,18.71
2018-07-23T21:36:28.285Z,18.66
2018-07-23T21:38:55.522Z,18.63
2018-07-23T21:41:22.653Z,18.60
2018-07-23T21:43:49.869Z,18.61
2018-07-23T21:46:17.066Z,18.59
2018-07-23T21:48:44.180Z,18.57
2018-07-23T21:51:11.291Z,18.54
2018-07-23T21:53:38.459Z,18.54
2018-07-23T21:56:05.692Z,18.50
2018-07-23T21:58:32.807Z,18.47
2018-07-23T22:00:59.994Z,18.44
2018-07-23T22:03:27.143Z,18.44
2018-07-23T22:05:54.304Z,18.39
2018-07-23T22:08:21.577Z,18.37
2018-07-23T22:10:48.718Z,18.33
2018-07-23T22:13:15.851Z,18.29
2018-07-23T22:15:43.011Z,18.23
2018-07-23T22:18:10.155Z,18.20
2018-07-23T22:20:37.259Z,18.19
2018-07-23T22:23:04.688Z,18.20
2018-07-23T22:25:31.900Z,18.19
2018-07-23T22:27:59.011Z,18.17
2018-07-23T22:30:26.207Z,18.15
2018-07-23T22:32:53.371Z,18.10
2018-07-23T22:35:20.487Z,18.07
2018-07-23T22:37:47.728Z,18.05
2018-07-23T22:40:14.865Z,18.02
2018-07-23T22:42:41.997Z,17.98
2018-07-23T22:45:09.164Z,17.96
2018-07-23T22:47:36.261Z,17.96
2018-07-23T22:50:03.686Z,17.99
2018-07-23T22:52:30.878Z,17.97
2018-07-23T22:54:58.095Z,17.94
2018-07-23T22:57:25.218Z,17.91
2018-07-23T22:59:52.440Z,17.86
2018-07-23T23:02:19.571Z,17.86
2018-07-23T23:04:46.674Z,17.85
2018-07-23T23:07:13.836Z,17.87
2018-07-23T23:09:40.967Z,17.88
2018-07-23T23:12:08.156Z,17.86
2018-07-23T23:14:35.268Z,17.86
2018-07-23T23:17:02.395Z,17.85
2018-07-23T23:19:30.048Z,17.84
2018-07-23T23:21:57.191Z,17.81
2018-07-23T23:24:24.297Z,17.74
2018-07-23T23:26:51.958Z,17.69
2018-07-23T23:29:19.103Z,17.63
2018-07-23T23:31:46.234Z,17.52
2018-07-23T23:34:13.527Z,17.46
2018-07-23T23:36:40.620Z,17.39
2018-07-23T23:39:09.274Z,17.35
2018-07-23T23:41:36.843Z,17.28
2018-07-23T23:44:03.947Z,17.22
2018-07-23T23:46:31.165Z,17.18
2018-07-23T23:48:58.310Z,17.12
2018-07-23T23:51:25.434Z,17.11
2018-07-23T23:53:52.535Z,17.03
2018-07-23T23:56:19.680Z,16.99
2018-07-23T23:58:46.920Z,17.01
